Time;durP1;ratioP1;P1;durP2;ratioP2;P2;SDS_P1;SDS_P2;PMS_P1;PMS_P2;Temp;Humidity;BMP_temperature;BMP_pressure;BME280_temperature;BME280_humidity;BME280_pressure;Samples;Min_cycle;Max_cycle;Signal;HPM_P1;HPM_P2
2023/07/31 00:00:30;;;;;;;19.50;7.68;;;;;;;15.97;100.00;100902.44;4985897;28;20054;-89
2023/07/31 00:02:57;;;;;;;21.52;8.30;;;;;;;15.98;100.00;100890.03;4990443;28;20042;-91
2023/07/31 00:05:25;;;;;;;19.33;8.52;;;;;;;16.01;100.00;100891.66;4991325;28;20092;-89
2023/07/31 00:07:53;;;;;;;20.55;9.23;;;;;;;16.02;100.00;100893.38;4990746;28;20088;-86
2023/07/31 00:10:21;;;;;;;23.35;9.55;;;;;;;16.02;100.00;100890.72;4983858;28;20113;-87
2023/07/31 00:12:48;;;;;;;17.17;9.07;;;;;;;16.05;100.00;100888.75;4989884;28;20100;-87
2023/07/31 00:15:16;;;;;;;21.65;9.32;;;;;;;16.08;100.00;100885.94;4988366;28;20042;-82
2023/07/31 00:17:44;;;;;;;20.67;9.23;;;;;;;16.09;100.00;100879.69;4977297;28;20057;-84
2023/07/31 00:20:11;;;;;;;23.05;9.90;;;;;;;16.11;100.00;100880.47;4985943;28;20038;-84
2023/07/31 00:22:38;;;;;;;24.60;9.15;;;;;;;16.13;100.00;100885.69;4993273;28;20070;-83
2023/07/31 00:25:06;;;;;;;26.25;8.82;;;;;;;16.12;100.00;100879.53;4992953;28;20673;-88
2023/07/31 00:27:35;;;;;;;24.10;9.05;;;;;;;16.11;100.00;100880.47;4992563;28;20049;-84
2023/07/31 00:30:03;;;;;;;23.10;8.10;;;;;;;16.13;100.00;100881.22;4987457;28;20041;-83
2023/07/31 00:32:32;;;;;;;18.60;8.52;;;;;;;16.14;100.00;100882.94;4987948;28;20039;-84
2023/07/31 00:34:59;;;;;;;23.92;8.43;;;;;;;16.17;100.00;100881.94;4987685;28;20417;-84
2023/07/31 00:37:26;;;;;;;19.60;8.18;;;;;;;16.18;100.00;100882.78;4972328;28;20517;-84
2023/07/31 00:39:55;;;;;;;18.38;8.50;;;;;;;16.19;100.00;100887.16;4991051;28;20114;-85
2023/07/31 00:42:24;;;;;;;19.80;8.63;;;;;;;16.20;100.00;100884.41;4969792;28;20046;-83
2023/07/31 00:44:51;;;;;;;23.60;8.40;;;;;;;16.20;100.00;100881.75;5004166;28;20088;-87
2023/07/31 00:47:19;;;;;;;20.58;7.80;;;;;;;16.23;100.00;100872.75;4976648;28;20038;-82
2023/07/31 00:49:46;;;;;;;23.98;7.85;;;;;;;16.19;100.00;100864.06;4990839;28;20114;-85
2023/07/31 00:52:13;;;;;;;19.27;7.25;;;;;;;16.20;100.00;100871.13;5004787;28;20848;-81
2023/07/31 00:54:40;;;;;;;17.23;7.47;;;;;;;16.20;100.00;100871.13;5008330;28;20069;-81
2023/07/31 00:57:08;;;;;;;17.13;7.07;;;;;;;16.23;100.00;100883.38;4985633;28;20092;-80
2023/07/31 00:59:35;;;;;;;16.52;6.68;;;;;;;16.27;100.00;100883.16;5006162;28;20042;-81
2023/07/31 01:02:03;;;;;;;16.40;6.47;;;;;;;16.26;100.00;100867.28;4990118;28;20046;-82
2023/07/31 01:04:31;;;;;;;19.00;7.47;;;;;;;16.27;100.00;100861.00;5009549;28;20106;-81
2023/07/31 01:07:17;;;;;;;18.90;6.82;;;;;;;16.29;100.00;100864.44;5007203;28;20092;-81
2023/07/31 01:10:16;;;;;;;19.27;6.60;;;;;;;16.27;100.00;100867.22;5009808;28;20731;-81
2023/07/31 01:12:46;;;;;;;18.42;6.47;;;;;;;16.26;100.00;100872.59;4974224;28;20438;-81
2023/07/31 01:15:15;;;;;;;22.20;6.72;;;;;;;16.26;100.00;100867.28;4993661;28;20048;-79
2023/07/31 01:17:43;;;;;;;19.35;6.38;;;;;;;16.27;100.00;100863.66;4989865;28;20042;-81
2023/07/31 01:20:16;;;;;;;15.13;5.57;;;;;;;16.29;100.00;100856.47;5007602;28;20069;-79
2023/07/31 01:23:39;;;;;;;17.45;5.97;;;;;;;16.26;100.00;100856.63;4991877;28;20153;-79
2023/07/31 01:26:23;;;;;;;17.02;5.97;;;;;;;16.25;100.00;100858.44;4990054;28;20046;-83
2023/07/31 01:29:30;;;;;;;16.30;5.95;;;;;;;16.26;100.00;100861.94;4992172;28;20053;-82
2023/07/31 01:32:03;;;;;;;18.60;6.22;;;;;;;16.26;100.00;100853.97;5006597;28;20041;-83
2023/07/31 01:34:32;;;;;;;19.80;6.28;;;;;;;16.25;100.00;100850.47;4994487;28;20050;-79
2023/07/31 01:36:59;;;;;;;17.10;5.53;;;;;;;16.27;100.00;100853.03;5006134;28;20050;-79
2023/07/31 01:39:26;;;;;;;15.00;5.57;;;;;;;16.25;100.00;100858.44;4990611;28;20041;-77
2023/07/31 01:41:53;;;;;;;16.42;5.63;;;;;;;16.24;100.00;100842.56;5005846;28;20041;-79
2023/07/31 01:44:20;;;;;;;17.63;5.13;;;;;;;16.27;100.00;100861.88;5005046;28;20405;-79
2023/07/31 01:46:47;;;;;;;16.20;5.57;;;;;;;16.27;100.00;100853.03;4987834;28;20053;-78
2023/07/31 01:49:15;;;;;;;14.45;5.07;;;;;;;16.28;100.00;100849.44;5005375;28;20034;-81
2023/07/31 01:51:42;;;;;;;17.77;5.18;;;;;;;16.25;100.00;100844.28;4990347;28;20128;-78
2023/07/31 01:54:09;;;;;;;13.75;4.88;;;;;;;16.26;100.00;100844.22;4991144;28;20046;-78
2023/07/31 01:56:37;;;;;;;15.82;5.30;;;;;;;16.28;100.00;100838.78;4991699;28;20658;-79
2023/07/31 01:59:05;;;;;;;17.05;5.00;;;;;;;16.27;100.00;100839.72;5016829;28;20040;-80
2023/07/31 02:01:32;;;;;;;16.45;5.38;;;;;;;16.27;100.00;100847.72;4997447;28;20050;-81
2023/07/31 02:04:02;;;;;;;13.65;5.22;;;;;;;16.24;100.00;100832.78;4989180;28;20129;-81
2023/07/31 02:06:29;;;;;;;11.63;4.75;;;;;;;16.27;100.00;100834.41;4990525;28;20437;-81
2023/07/31 02:08:56;;;;;;;12.48;4.85;;;;;;;16.27;100.00;100837.94;4989280;28;20398;-80
2023/07/31 02:11:23;;;;;;;14.45;5.18;;;;;;;16.26;100.00;100838.00;5010009;28;20057;-79
2023/07/31 02:13:51;;;;;;;17.17;5.03;;;;;;;16.24;100.00;100832.78;5005609;28;20113;-80
2023/07/31 02:16:18;;;;;;;15.10;5.32;;;;;;;16.24;100.00;100834.56;5001617;28;20037;-81
2023/07/31 02:18:45;;;;;;;15.90;5.45;;;;;;;16.22;100.00;100824.03;4993053;28;20092;-80
2023/07/31 02:21:13;;;;;;;13.60;4.80;;;;;;;16.26;100.00;100827.38;4986396;28;20038;-80
2023/07/31 02:23:40;;;;;;;15.30;5.65;;;;;;;16.24;100.00;100821.28;4990532;28;20042;-79
2023/07/31 02:26:07;;;;;;;13.50;4.88;;;;;;;16.24;100.00;100818.63;4984339;28;20100;-80
2023/07/31 02:28:34;;;;;;;16.15;4.60;;;;;;;16.23;100.00;100823.09;5005690;28;20042;-81
2023/07/31 02:31:01;;;;;;;16.92;5.10;;;;;;;16.19;100.00;100808.22;5005921;28;20042;-80
2023/07/31 02:33:28;;;;;;;14.10;4.97;;;;;;;16.22;100.00;100807.22;5008428;28;20147;-80
2023/07/31 02:35:55;;;;;;;14.50;5.25;;;;;;;16.20;100.00;100815.25;5006090;28;20038;-79
2023/07/31 02:38:23;;;;;;;13.88;5.20;;;;;;;16.21;100.00;100814.31;4991820;28;20049;-80
2023/07/31 02:40:50;;;;;;;16.98;5.20;;;;;;;16.20;100.00;100814.41;4990156;28;20080;-81
2023/07/31 02:43:17;;;;;;;15.73;5.05;;;;;;;16.19;100.00;100812.69;4991449;28;20049;-80
2023/07/31 02:45:44;;;;;;;13.73;5.40;;;;;;;16.16;100.00;100816.41;4998504;28;20085;-78
2023/07/31 02:48:11;;;;;;;17.50;5.28;;;;;;;16.16;100.00;100824.38;5003634;28;20130;-77
2023/07/31 02:50:38;;;;;;;15.73;4.95;;;;;;;16.13;100.00;100809.41;4985525;28;20046;-78
2023/07/31 02:53:06;;;;;;;17.73;5.72;;;;;;;16.14;100.00;100810.28;5007365;28;20034;-78
2023/07/31 02:55:33;;;;;;;17.33;5.68;;;;;;;16.12;100.00;100807.72;5006853;28;20048;-79
2023/07/31 02:58:00;;;;;;;17.17;5.20;;;;;;;16.12;100.00;100810.38;5006591;28;20045;-77
2023/07/31 03:00:30;;;;;;;17.25;5.22;;;;;;;16.10;100.00;100806.06;4974857;28;20050;-78
2023/07/31 03:02:57;;;;;;;15.48;4.68;;;;;;;16.09;100.00;100804.34;5008015;28;20042;-79
2023/07/31 03:05:24;;;;;;;13.25;4.82;;;;;;;16.09;100.00;100807.88;4973261;28;20044;-78
2023/07/31 03:07:51;;;;;;;14.30;5.00;;;;;;;16.11;100.00;100807.78;4987369;28;20069;-78
2023/07/31 03:10:18;;;;;;;16.15;5.15;;;;;;;16.08;100.00;100800.84;5007889;28;20050;-79
2023/07/31 03:12:48;;;;;;;14.35;5.05;;;;;;;16.09;100.00;100802.56;5006864;28;20073;-79
2023/07/31 03:15:16;;;;;;;15.07;4.95;;;;;;;16.10;100.00;100809.59;5006066;28;20128;-79
2023/07/31 03:17:43;;;;;;;13.93;4.75;;;;;;;16.08;100.00;100807.94;4989587;28;20050;-80
2023/07/31 03:20:10;;;;;;;14.27;5.53;;;;;;;16.10;100.00;100806.06;5008357;28;20509;-80
2023/07/31 03:22:38;;;;;;;16.38;5.20;;;;;;;16.09;100.00;100807.88;5008163;28;20053;-80
2023/07/31 03:25:06;;;;;;;18.58;5.30;;;;;;;16.09;100.00;100810.53;5007489;28;20677;-79
2023/07/31 03:27:33;;;;;;;15.13;5.32;;;;;;;16.10;100.00;100811.38;4991421;28;20947;-80
2023/07/31 03:30:00;;;;;;;13.63;5.00;;;;;;;16.11;100.00;100815.75;5009656;28;20610;-80
2023/07/31 03:32:29;;;;;;;14.77;5.03;;;;;;;16.09;100.00;100809.66;5008050;28;20436;-82
2023/07/31 03:34:57;;;;;;;11.98;5.25;;;;;;;16.10;100.00;100814.91;5005624;28;20117;-80
2023/07/31 03:37:24;;;;;;;13.40;4.80;;;;;;;16.08;100.00;100813.25;5007121;28;20038;-79
2023/07/31 03:39:53;;;;;;;15.57;5.30;;;;;;;16.07;100.00;100807.09;4988328;28;20049;-80
2023/07/31 03:42:20;;;;;;;16.50;5.35;;;;;;;16.08;100.00;100811.47;4974138;28;20066;-81
2023/07/31 03:44:50;;;;;;;17.77;5.20;;;;;;;16.07;100.00;100806.25;4971409;28;20100;-79
2023/07/31 03:47:17;;;;;;;13.18;5.22;;;;;;;16.07;100.00;100790.31;5000674;28;20050;-79
2023/07/31 03:49:44;;;;;;;18.05;5.45;;;;;;;16.08;100.00;100794.66;4989961;28;20182;-79
2023/07/31 03:52:11;;;;;;;14.40;5.40;;;;;;;16.05;100.00;100776.22;5007889;28;20049;-78
2023/07/31 03:54:38;;;;;;;19.65;4.95;;;;;;;16.06;100.00;100783.25;4990860;28;20503;-78
2023/07/31 03:57:06;;;;;;;17.02;5.50;;;;;;;16.08;100.00;100784.88;5011231;28;20045;-79
2023/07/31 03:59:33;;;;;;;15.98;5.13;;;;;;;16.10;100.00;100777.69;4994823;28;20445;-80
2023/07/31 04:02:00;;;;;;;13.43;4.90;;;;;;;16.09;100.00;100775.09;5009860;28;20060;-79
2023/07/31 04:04:27;;;;;;;17.63;5.43;;;;;;;16.10;100.00;100775.03;5008831;28;20042;-78
2023/07/31 04:06:54;;;;;;;16.98;5.20;;;;;;;16.11;100.00;100768.78;5010880;28;20050;-80
2023/07/31 04:09:22;;;;;;;13.10;4.78;;;;;;;16.15;100.00;100774.78;4993811;28;20046;-80
2023/07/31 04:11:49;;;;;;;14.70;4.80;;;;;;;16.17;100.00;100769.38;4976014;28;20123;-80
2023/07/31 04:14:16;;;;;;;11.25;4.50;;;;;;;16.19;100.00;100775.47;4976578;28;20053;-80
2023/07/31 04:16:43;;;;;;;11.30;4.60;;;;;;;16.20;98.75;100777.19;4993216;28;20559;-82
2023/07/31 04:19:11;;;;;;;16.55;4.93;;;;;;;16.20;100.00;100777.19;5013686;28;20037;-82
2023/07/31 04:21:38;;;;;;;13.90;5.18;;;;;;;16.22;99.29;100772.66;5010282;28;20061;-82
2023/07/31 04:24:05;;;;;;;12.20;4.63;;;;;;;16.24;99.83;100771.63;4994615;28;20053;-81
2023/07/31 04:26:32;;;;;;;13.88;4.70;;;;;;;16.26;100.00;100768.84;4999203;28;20049;-81
2023/07/31 04:28:59;;;;;;;15.75;4.60;;;;;;;16.27;100.00;100767.91;4993981;28;20104;-78
2023/07/31 04:31:26;;;;;;;13.27;4.90;;;;;;;16.29;100.00;100760.72;5005029;28;20100;-80
2023/07/31 04:33:53;;;;;;;12.30;4.40;;;;;;;16.30;100.00;100754.47;5007542;28;20050;-80
2023/07/31 04:36:20;;;;;;;15.00;4.93;;;;;;;16.33;100.00;100761.41;4991479;28;20042;-78
2023/07/31 04:38:47;;;;;;;12.60;4.57;;;;;;;16.34;100.00;100763.97;5007521;28;20044;-77
2023/07/31 04:41:14;;;;;;;15.18;4.80;;;;;;;16.37;100.00;100754.97;4991649;28;20140;-78
2023/07/31 04:43:41;;;;;;;11.90;4.35;;;;;;;16.40;100.00;100754.78;4991182;28;20072;-78
2023/07/31 04:46:08;;;;;;;12.13;4.70;;;;;;;16.41;100.00;100757.38;4975441;28;20145;-79
2023/07/31 04:48:35;;;;;;;16.02;4.80;;;;;;;16.43;100.00;100749.28;5008461;28;20113;-78
2023/07/31 04:51:03;;;;;;;10.73;4.85;;;;;;;16.45;100.00;100748.25;5007599;28;20053;-76
2023/07/31 04:53:30;;;;;;;15.85;5.28;;;;;;;16.48;100.00;100746.38;5007223;28;20093;-75
2023/07/31 04:56:00;;;;;;;15.20;4.93;;;;;;;16.51;100.00;100746.22;5006029;28;20044;-71
2023/07/31 04:58:29;;;;;;;12.73;4.50;;;;;;;16.54;100.00;100748.69;5008220;28;20046;-71
2023/07/31 05:00:57;;;;;;;12.02;4.57;;;;;;;16.58;100.00;100739.59;5007532;28;20085;-70
2023/07/31 05:03:24;;;;;;;15.15;4.75;;;;;;;16.61;100.00;100736.75;5004178;28;20072;-70
2023/07/31 05:05:51;;;;;;;15.35;4.90;;;;;;;16.66;100.00;100739.16;5008234;28;20045;-71
2023/07/31 05:08:18;;;;;;;15.35;4.72;;;;;;;16.68;100.00;100734.59;5008227;28;20041;-69
2023/07/31 05:10:45;;;;;;;14.18;4.45;;;;;;;16.72;100.00;100733.47;5008214;28;20118;-71
2023/07/31 05:13:12;;;;;;;14.27;4.55;;;;;;;16.75;100.00;100736.81;5009680;28;20498;-71
2023/07/31 05:15:41;;;;;;;11.02;4.38;;;;;;;16.76;99.57;100729.69;4998856;28;20129;-71
2023/07/31 05:18:09;;;;;;;14.75;4.45;;;;;;;16.74;100.00;100719.13;5006435;28;20406;-71
2023/07/31 05:20:36;;;;;;;13.93;4.45;;;;;;;16.75;100.00;100717.31;5008936;28;20226;-70
2023/07/31 05:23:03;;;;;;;9.40;4.18;;;;;;;16.75;100.00;100704.03;4989406;28;20050;-71
2023/07/31 05:25:30;;;;;;;12.73;4.53;;;;;;;16.75;100.00;100712.00;5007425;28;20038;-70
2023/07/31 05:27:58;;;;;;;15.00;4.78;;;;;;;16.74;100.00;100700.47;5008954;28;20566;-71
2023/07/31 05:30:26;;;;;;;14.10;4.22;;;;;;;16.73;100.00;100701.47;5005509;28;20045;-70
2023/07/31 05:32:53;;;;;;;15.68;4.40;;;;;;;16.75;100.00;100696.88;5006170;28;20038;-70
2023/07/31 05:35:20;;;;;;;14.98;4.43;;;;;;;16.76;100.00;100703.06;5007204;28;20406;-70
2023/07/31 05:37:47;;;;;;;10.70;4.00;;;;;;;16.80;100.00;100690.44;5009188;28;20661;-69
2023/07/31 05:40:14;;;;;;;14.75;4.93;;;;;;;16.81;100.00;100698.31;5006086;28;20045;-67
2023/07/31 05:42:43;;;;;;;9.95;4.22;;;;;;;16.84;100.00;100694.66;5004400;28;20042;-70
2023/07/31 05:45:10;;;;;;;14.18;4.82;;;;;;;16.84;100.00;100699.97;5007618;28;20588;-70
2023/07/31 05:47:37;;;;;;;11.30;4.82;;;;;;;16.81;100.00;100700.97;4987851;28;20465;-70
2023/07/31 05:50:05;;;;;;;13.05;4.95;;;;;;;16.81;100.00;100700.97;4999787;28;20050;-79
2023/07/31 05:52:35;;;;;;;12.52;5.13;;;;;;;16.79;100.00;100696.72;4967914;28;20037;-81
2023/07/31 05:55:04;;;;;;;13.45;4.78;;;;;;;16.77;100.00;100691.47;4966677;28;20092;-81
2023/07/31 05:57:31;;;;;;;12.27;5.00;;;;;;;16.74;100.00;100689.84;5008922;28;20037;-80
2023/07/31 05:59:58;;;;;;;11.05;5.15;;;;;;;16.74;100.00;100681.00;4991337;28;20046;-79
2023/07/31 06:02:26;;;;;;;11.52;4.68;;;;;;;16.75;100.00;100685.38;4988636;28;20037;-75
2023/07/31 06:04:56;;;;;;;11.65;4.43;;;;;;;16.74;100.00;100687.16;5003350;28;20041;-76
2023/07/31 06:07:24;;;;;;;9.70;4.47;;;;;;;16.73;100.00;100682.81;5010852;28;20061;-84
2023/07/31 06:09:51;;;;;;;10.90;4.68;;;;;;;16.74;100.00;100683.66;5009349;28;20536;-82
2023/07/31 06:12:21;;;;;;;11.40;4.80;;;;;;;16.73;100.00;100685.50;4991363;28;20092;-80
2023/07/31 06:14:48;;;;;;;12.52;4.72;;;;;;;16.68;100.00;100681.38;4989240;28;20058;-83
2023/07/31 06:17:15;;;;;;;9.32;3.97;;;;;;;16.67;100.00;100682.31;5007317;28;20088;-80
2023/07/31 06:19:42;;;;;;;10.60;4.53;;;;;;;16.64;100.00;100674.50;4990302;28;20121;-79
2023/07/31 06:22:09;;;;;;;13.68;4.22;;;;;;;16.61;100.00;100670.22;4985495;28;20066;-79
2023/07/31 06:24:36;;;;;;;8.95;4.03;;;;;;;16.57;100.00;100674.88;5008754;28;20127;-79
2023/07/31 06:27:05;;;;;;;9.02;4.03;;;;;;;16.55;100.00;100668.78;5008938;28;20053;-78
2023/07/31 06:29:33;;;;;;;9.48;4.20;;;;;;;16.53;100.00;100675.16;4987727;28;20494;-80
2023/07/31 06:32:00;;;;;;;7.10;3.90;;;;;;;16.53;100.00;100670.66;5006888;28;20042;-79
2023/07/31 06:34:30;;;;;;;8.15;3.53;;;;;;;16.52;100.00;100668.94;5005012;28;20069;-79
2023/07/31 06:36:57;;;;;;;7.00;3.80;;;;;;;16.51;100.00;100674.38;4991334;28;20042;-80
2023/07/31 06:39:24;;;;;;;7.53;3.95;;;;;;;16.49;100.00;100658.47;4986151;28;20042;-78
2023/07/31 06:41:51;;;;;;;7.43;3.35;;;;;;;16.48;100.00;100654.13;4977568;28;20120;-79
2023/07/31 06:44:19;;;;;;;6.18;3.35;;;;;;;16.46;100.00;100656.00;4995271;28;20696;-80
2023/07/31 06:46:46;;;;;;;6.65;3.53;;;;;;;16.49;100.00;100652.31;5002366;28;20076;-77
2023/07/31 06:49:16;;;;;;;7.57;4.00;;;;;;;16.53;100.00;100652.03;4989057;28;20520;-78
2023/07/31 06:51:44;;;;;;;6.88;3.33;;;;;;;16.62;100.00;100653.31;4988674;28;20522;-78
2023/07/31 06:54:11;;;;;;;7.40;3.60;;;;;;;16.68;100.00;100644.97;5001644;28;20529;-80
2023/07/31 06:56:38;;;;;;;6.65;3.63;;;;;;;16.70;100.00;100636.88;5006647;28;20069;-78
2023/07/31 06:59:08;;;;;;;7.72;3.67;;;;;;;16.71;100.00;100634.16;4989525;28;20697;-79
2023/07/31 07:01:35;;;;;;;7.85;3.70;;;;;;;16.72;100.00;100627.00;4993288;28;20116;-79
2023/07/31 07:04:02;;;;;;;5.18;3.25;;;;;;;16.83;100.00;100626.38;4988551;28;20517;-78
2023/07/31 07:06:29;;;;;;;5.63;3.28;;;;;;;16.86;100.00;100632.38;5005151;28;20536;-79
2023/07/31 07:08:57;;;;;;;5.15;3.30;;;;;;;16.90;100.00;100620.56;4987865;28;20045;-78
2023/07/31 07:11:24;;;;;;;5.22;3.38;;;;;;;16.97;100.00;100625.56;5004286;28;20568;-79
2023/07/31 07:13:52;;;;;;;5.43;3.40;;;;;;;17.02;100.00;100623.47;4992491;28;20118;-77
2023/07/31 07:16:19;;;;;;;5.80;3.30;;;;;;;17.04;100.00;100626.91;4984842;28;20104;-78
2023/07/31 07:18:46;;;;;;;5.78;3.85;;;;;;;17.02;100.00;100621.69;5003464;28;20037;-78
2023/07/31 07:21:30;;;;;;;5.03;2.77;;;;;;;16.99;100.00;100632.50;5005842;28;20034;-79
2023/07/31 07:23:57;;;;;;;7.07;3.47;;;;;;;16.94;100.00;100626.59;4986056;28;20050;-79
2023/07/31 07:26:24;;;;;;;6.00;3.63;;;;;;;16.94;100.00;100621.25;5006969;28;20064;-78
2023/07/31 07:28:51;;;;;;;7.15;3.50;;;;;;;16.96;100.00;100616.72;4975343;28;20502;-78
2023/07/31 07:31:19;;;;;;;4.50;2.90;;;;;;;16.98;100.00;100616.63;5002525;28;20050;-79
2023/07/31 07:33:46;;;;;;;6.72;3.53;;;;;;;16.93;100.00;100614.22;4986723;28;20743;-79
2023/07/31 07:36:13;;;;;;;4.97;3.20;;;;;;;16.94;100.00;100607.94;4986878;28;20490;-78
2023/07/31 07:38:41;;;;;;;4.55;3.30;;;;;;;16.99;100.00;100610.38;5006445;28;20129;-80
2023/07/31 07:41:08;;;;;;;7.38;3.03;;;;;;;17.00;100.00;100610.25;4986135;28;20046;-80
2023/07/31 07:43:35;;;;;;;6.18;2.80;;;;;;;17.02;100.00;100611.03;4988258;28;20049;-79
2023/07/31 07:46:02;;;;;;;5.60;3.00;;;;;;;17.06;100.00;100604.53;4987133;28;20112;-80
2023/07/31 07:48:29;;;;;;;4.78;2.88;;;;;;;17.11;100.00;100606.09;5003041;28;20573;-80
2023/07/31 07:50:57;;;;;;;5.38;2.95;;;;;;;17.16;100.00;100606.63;5008574;28;20038;-79
2023/07/31 07:53:25;;;;;;;4.35;2.70;;;;;;;17.21;100.00;100608.06;5001234;28;20141;-79
2023/07/31 07:55:52;;;;;;;5.15;2.78;;;;;;;17.24;100.00;100599.06;5001975;28;20046;-79
2023/07/31 07:58:19;;;;;;;4.28;2.42;;;;;;;17.31;100.00;100602.16;5004090;28;20050;-78
2023/07/31 08:00:55;;;;;;;3.22;2.40;;;;;;;17.33;100.00;100605.59;5002282;28;20038;-79
2023/07/31 08:03:39;;;;;;;3.83;2.67;;;;;;;17.35;100.00;100601.88;4999454;28;20088;-78
2023/07/31 08:06:10;;;;;;;4.78;2.63;;;;;;;17.36;100.00;100608.91;5001286;28;20042;-79
2023/07/31 08:08:38;;;;;;;3.17;2.08;;;;;;;17.37;100.00;100599.97;5008632;28;20034;-78
2023/07/31 08:11:06;;;;;;;4.35;2.40;;;;;;;17.37;100.00;100599.13;4986690;28;20050;-79
2023/07/31 08:13:36;;;;;;;2.90;2.10;;;;;;;17.35;100.00;100595.72;4990890;28;20050;-78
2023/07/31 08:16:09;;;;;;;4.32;2.50;;;;;;;17.33;100.00;100592.28;4987254;28;20050;-78
2023/07/31 08:18:40;;;;;;;4.00;2.33;;;;;;;17.26;100.00;100602.47;5008096;28;20457;-79
2023/07/31 08:21:08;;;;;;;3.55;2.38;;;;;;;17.29;100.00;100598.78;5009957;28;20042;-79
2023/07/31 08:23:37;;;;;;;2.80;2.20;;;;;;;17.27;100.00;100604.16;5006694;28;20038;-79
2023/07/31 08:26:04;;;;;;;4.70;2.65;;;;;;;17.22;100.00;100607.13;5008715;28;20054;-79
2023/07/31 08:28:32;;;;;;;4.63;2.50;;;;;;;17.23;100.00;100600.84;5007531;28;20112;-79
2023/07/31 08:31:07;;;;;;;5.15;2.60;;;;;;;17.24;100.00;100601.72;5007402;28;20038;-78
2023/07/31 08:33:41;;;;;;;3.85;2.50;;;;;;;17.26;100.00;100602.47;5000848;28;20045;-78
2023/07/31 08:36:11;;;;;;;3.03;2.23;;;;;;;17.26;100.00;100607.78;5007041;28;20073;-78
2023/07/31 08:38:38;;;;;;;4.70;2.65;;;;;;;17.29;100.00;100599.59;4989331;28;20096;-78
2023/07/31 08:41:17;;;;;;;4.63;2.70;;;;;;;17.36;100.00;100600.94;5008596;28;20050;-78
2023/07/31 08:43:52;;;;;;;5.22;2.88;;;;;;;17.45;100.00;100599.50;5008669;28;20072;-79
2023/07/31 08:46:21;;;;;;;4.75;2.78;;;;;;;17.53;100.00;100599.03;5003476;28;20062;-79
2023/07/31 08:48:53;;;;;;;3.80;2.95;;;;;;;17.57;100.00;100595.19;4994575;28;20065;-79
2023/07/31 08:51:23;;;;;;;5.18;2.60;;;;;;;17.61;100.00;100595.84;5011706;28;20195;-79
2023/07/31 08:53:50;;;;;;;4.15;2.47;;;;;;;17.62;100.00;100597.56;4993172;28;20092;-80
2023/07/31 08:56:18;;;;;;;4.95;2.88;;;;;;;17.65;100.00;100600.88;5001422;28;20049;-79
2023/07/31 08:58:47;;;;;;;4.22;2.83;;;;;;;17.64;100.00;100593.88;4978578;28;20489;-80
2023/07/31 09:01:15;;;;;;;3.60;2.60;;;;;;;17.64;100.00;100603.66;4994252;28;20073;-80
2023/07/31 09:03:47;;;;;;;4.75;2.97;;;;;;;17.64;100.00;100604.53;5017306;28;20120;-80
2023/07/31 09:06:25;;;;;;;3.97;2.53;;;;;;;17.66;100.00;100599.94;4990452;28;20042;-80
2023/07/31 09:08:54;;;;;;;6.30;2.90;;;;;;;17.66;100.00;100602.59;4989101;28;20054;-79
2023/07/31 09:11:29;;;;;;;4.65;2.65;;;;;;;17.66;100.00;100602.59;5008427;28;20073;-79
2023/07/31 09:13:58;;;;;;;4.63;2.70;;;;;;;17.65;100.00;100610.72;4992874;28;20041;-79
2023/07/31 09:16:30;;;;;;;6.28;3.10;;;;;;;17.63;100.00;100602.81;5006595;28;20042;-80
2023/07/31 09:19:04;;;;;;;6.35;2.88;;;;;;;17.62;100.00;100605.56;4989553;28;20038;-79
2023/07/31 09:21:31;;;;;;;5.80;2.80;;;;;;;17.59;100.00;100587.13;5009498;28;20037;-78
2023/07/31 09:23:59;;;;;;;5.05;3.05;;;;;;;17.56;100.00;100590.81;5007927;28;20050;-79
2023/07/31 09:26:35;;;;;;;4.25;2.70;;;;;;;17.57;100.00;100592.53;5009437;28;20041;-79
2023/07/31 09:29:18;;;;;;;5.90;3.20;;;;;;;17.56;100.00;100587.31;5005567;28;20097;-79
2023/07/31 09:31:50;;;;;;;5.82;2.78;;;;;;;17.51;100.00;100596.44;5008431;28;20490;-80
2023/07/31 09:34:18;;;;;;;4.13;2.90;;;;;;;17.45;100.00;100588.00;4987019;28;20125;-81
2023/07/31 09:36:53;;;;;;;6.47;3.22;;;;;;;17.43;100.00;100595.22;4992563;28;20049;-80
2023/07/31 09:39:24;;;;;;;6.32;3.75;;;;;;;17.41;100.00;100579.31;4991769;28;20647;-80
2023/07/31 09:41:55;;;;;;;5.47;3.47;;;;;;;17.42;100.00;100583.69;5006442;28;20034;-79
2023/07/31 09:44:44;;;;;;;8.45;3.75;;;;;;;17.42;100.00;100586.38;5010942;28;20489;-79
2023/07/31 09:47:25;;;;;;;8.23;3.95;;;;;;;17.41;100.00;100581.16;5006649;28;20069;-77
2023/07/31 09:49:55;;;;;;;6.30;3.70;;;;;;;17.42;100.00;100575.72;5004802;28;20046;-77
2023/07/31 09:52:22;;;;;;;8.00;4.22;;;;;;;17.43;100.00;100569.44;5008982;28;20057;-76
2023/07/31 09:54:49;;;;;;;7.88;4.50;;;;;;;17.45;100.00;100561.34;5004622;28;20046;-76
2023/07/31 09:57:22;;;;;;;8.15;4.40;;;;;;;17.49;100.00;100568.19;4998383;28;20572;-76
2023/07/31 09:59:52;;;;;;;9.80;4.72;;;;;;;17.52;100.00;100574.16;5007991;28;20038;-75
2023/07/31 10:02:22;;;;;;;10.45;4.60;;;;;;;17.60;100.00;100565.69;4998422;28;20038;-75
2023/07/31 10:04:50;;;;;;;10.60;4.43;;;;;;;17.70;100.00;100572.16;5016225;28;20053;-75
2023/07/31 10:07:22;;;;;;;8.65;4.55;;;;;;;17.75;100.00;100561.19;5011227;28;20237;-75
2023/07/31 10:09:55;;;;;;;6.10;4.32;;;;;;;17.76;100.00;100572.69;5007715;28;20504;-75
2023/07/31 10:12:29;;;;;;;7.90;3.92;;;;;;;17.80;100.00;100568.88;4995392;28;20041;-75
2023/07/31 10:15:00;;;;;;;7.80;4.18;;;;;;;17.84;100.00;100571.25;4991055;28;20053;-75
2023/07/31 10:17:30;;;;;;;8.20;4.60;;;;;;;17.96;100.00;100563.41;4998844;28;20042;-75
2023/07/31 10:20:04;;;;;;;7.57;4.50;;;;;;;18.15;100.00;100569.25;4969845;28;20586;-75
2023/07/31 10:22:32;;;;;;;9.25;4.40;;;;;;;18.37;100.00;100575.81;4990636;28;20062;-75
2023/07/31 10:25:00;;;;;;;7.60;4.45;;;;;;;18.55;100.00;100568.38;5008318;28;20052;-75
2023/07/31 10:27:28;;;;;;;8.48;4.32;;;;;;;18.71;100.00;100564.66;4999299;28;20038;-75
2023/07/31 10:29:58;;;;;;;7.57;4.15;;;;;;;18.80;100.00;100557.84;5004199;28;20041;-75
2023/07/31 10:32:29;;;;;;;6.70;3.97;;;;;;;18.88;100.00;100563.47;5006408;28;20048;-74
2023/07/31 10:34:58;;;;;;;8.50;4.10;;;;;;;18.95;98.82;100550.59;4997945;28;20069;-75
2023/07/31 10:37:38;;;;;;;8.30;3.67;;;;;;;18.99;99.13;100560.09;4976955;28;20517;-75
2023/07/31 10:40:10;;;;;;;6.72;3.92;;;;;;;19.06;99.64;100564.88;4986101;28;20056;-75
2023/07/31 10:42:55;;;;;;;7.65;3.85;;;;;;;19.19;98.87;100561.34;4976195;28;20034;-74
2023/07/31 10:45:38;;;;;;;5.90;3.30;;;;;;;19.32;97.66;100556.84;5005914;28;20100;-74
2023/07/31 10:48:16;;;;;;;6.93;3.53;;;;;;;19.50;97.97;100546.63;5000023;28;20045;-75
2023/07/31 10:50:56;;;;;;;7.65;3.40;;;;;;;19.71;97.35;100546.03;4984155;28;20199;-75
2023/07/31 10:53:29;;;;;;;6.53;3.40;;;;;;;19.97;95.71;100545.97;4989064;28;20129;-74
2023/07/31 10:56:13;;;;;;;6.55;3.08;;;;;;;20.16;92.77;100542.75;5008210;28;20045;-74
2023/07/31 10:58:46;;;;;;;6.25;3.10;;;;;;;20.11;92.95;100536.91;5006791;28;20564;-74
2023/07/31 11:01:13;;;;;;;5.13;2.95;;;;;;;20.04;92.53;100539.19;4988881;28;20473;-75
2023/07/31 11:03:51;;;;;;;6.35;3.17;;;;;;;20.04;91.99;100541.84;4992663;28;20142;-75
2023/07/31 11:06:19;;;;;;;8.40;3.17;;;;;;;20.01;93.66;100534.03;4990792;28;20136;-74
2023/07/31 11:08:51;;;;;;;4.47;2.83;;;;;;;19.98;91.79;100540.47;5007364;28;20538;-74
2023/07/31 11:11:20;;;;;;;5.35;2.88;;;;;;;19.96;91.98;100531.72;5007260;28;20049;-75
2023/07/31 11:13:53;;;;;;;5.88;3.05;;;;;;;19.92;92.66;100530.25;4990541;28;20046;-74
2023/07/31 11:16:24;;;;;;;5.47;2.92;;;;;;;19.88;93.78;100527.94;4990348;28;20041;-74
2023/07/31 11:18:55;;;;;;;5.07;2.88;;;;;;;19.76;93.30;100530.50;5006584;28;20461;-75
2023/07/31 11:21:24;;;;;;;5.38;3.10;;;;;;;19.57;90.97;100543.53;4997984;28;20050;-75
2023/07/31 11:23:57;;;;;;;4.95;3.03;;;;;;;19.43;91.95;100547.22;5001772;28;20049;-75